Time;durP1;ratioP1;P1;durP2;ratioP2;P2;SDS_P1;SDS_P2;PMS_P1;PMS_P2;Temp;Humidity;BMP_temperature;BMP_pressure;BME280_temperature;BME280_humidity;BME280_pressure;Samples;Min_cycle;Max_cycle;Signal;HPM_P1;HPM_P2
2023/03/19 00:00:35;;;;;;;30.55;11.50;;;;;;;11.50;68.81;99659.25;4989256;28;20072;-83
2023/03/19 00:03:02;;;;;;;26.77;11.45;;;;;;;11.42;69.21;99652.97;5005218;28;20109;-82
2023/03/19 00:05:29;;;;;;;26.35;13.15;;;;;;;11.36;69.65;99658.88;4981630;28;20045;-83
2023/03/19 00:07:55;;;;;;;26.58;12.27;;;;;;;11.33;69.50;99662.69;5005500;28;20049;-83
2023/03/19 00:10:22;;;;;;;22.05;11.65;;;;;;;11.40;69.14;99669.09;4993502;28;20041;-82
2023/03/19 00:12:49;;;;;;;29.33;11.60;;;;;;;11.36;69.31;99673.00;4989507;28;20069;-82
2023/03/19 00:15:16;;;;;;;27.20;11.30;;;;;;;11.41;69.19;99676.06;4982474;28;20049;-82
2023/03/19 00:17:43;;;;;;;27.50;11.35;;;;;;;11.47;68.87;99664.00;5008247;28;20101;-82
2023/03/19 00:20:11;;;;;;;21.15;10.90;;;;;;;11.45;68.76;99671.31;4996882;28;20136;-82
2023/03/19 00:22:38;;;;;;;27.88;11.13;;;;;;;11.44;68.91;99666.97;5028091;28;20119;-82
2023/03/19 00:25:06;;;;;;;19.15;9.82;;;;;;;11.35;69.27;99673.16;4996144;28;20077;-83
2023/03/19 00:27:34;;;;;;;24.27;9.85;;;;;;;11.34;69.50;99672.31;4990715;28;20045;-82
2023/03/19 00:30:01;;;;;;;20.85;10.77;;;;;;;11.30;69.75;99673.59;5013891;28;20553;-82
2023/03/19 00:32:28;;;;;;;23.23;11.45;;;;;;;11.28;69.92;99680.88;4983862;28;20489;-82
2023/03/19 00:34:56;;;;;;;27.70;11.85;;;;;;;11.23;70.10;99669.84;4993935;28;20053;-82
2023/03/19 00:37:23;;;;;;;27.15;11.65;;;;;;;11.21;70.36;99672.63;5010431;28;20056;-82
2023/03/19 00:39:49;;;;;;;23.05;10.77;;;;;;;11.15;70.40;99675.03;4976074;28;20729;-82
2023/03/19 00:42:17;;;;;;;23.52;10.02;;;;;;;11.16;70.48;99682.03;5007142;28;20041;-82
2023/03/19 00:44:43;;;;;;;21.25;10.27;;;;;;;11.14;70.57;99676.84;4997246;28;20143;-82
2023/03/19 00:47:11;;;;;;;19.25;10.05;;;;;;;11.15;70.33;99675.03;5011377;28;20040;-83
2023/03/19 00:49:37;;;;;;;19.73;9.98;;;;;;;11.17;70.37;99687.19;5013799;28;20050;-82
2023/03/19 00:52:04;;;;;;;24.30;9.43;;;;;;;11.18;70.24;99682.72;4974242;28;20044;-82
2023/03/19 00:54:31;;;;;;;22.83;9.38;;;;;;;11.15;70.70;99683.00;5010690;28;20511;-83
2023/03/19 00:56:58;;;;;;;19.48;8.55;;;;;;;11.14;70.49;99679.50;5005713;28;20405;-82
2023/03/19 00:59:25;;;;;;;20.55;10.75;;;;;;;11.12;70.70;99683.28;4986339;28;20120;-82
2023/03/19 01:01:52;;;;;;;23.88;9.43;;;;;;;11.03;71.14;99680.50;4979549;28;20072;-82
2023/03/19 01:04:19;;;;;;;30.17;10.07;;;;;;;10.98;71.46;99674.78;4997020;28;20046;-82
2023/03/19 01:06:46;;;;;;;29.60;9.60;;;;;;;11.10;70.78;99679.94;4990029;28;20053;-83
2023/03/19 01:09:14;;;;;;;20.00;9.48;;;;;;;11.05;71.12;99675.06;5021965;28;20125;-82
2023/03/19 01:11:40;;;;;;;21.25;9.90;;;;;;;11.11;70.69;99669.16;5009066;28;20104;-82
2023/03/19 01:14:07;;;;;;;17.10;7.95;;;;;;;11.11;70.43;99673.63;5004353;28;20046;-82
2023/03/19 01:16:34;;;;;;;17.92;9.02;;;;;;;11.11;70.50;99679.78;4988865;28;20055;-82
2023/03/19 01:19:02;;;;;;;24.95;9.63;;;;;;;11.13;70.51;99680.50;4990500;28;20046;-82
2023/03/19 01:21:32;;;;;;;26.15;10.40;;;;;;;11.18;70.33;99670.25;4973137;28;20077;-82
2023/03/19 01:23:59;;;;;;;19.25;9.93;;;;;;;11.13;70.75;99674.34;5007911;28;20044;-82
2023/03/19 01:26:27;;;;;;;23.15;10.40;;;;;;;11.14;71.03;99676.84;4987596;28;20104;-82
2023/03/19 01:29:02;;;;;;;22.10;9.82;;;;;;;11.18;70.53;99672.91;4975684;28;20057;-82
2023/03/19 01:31:29;;;;;;;18.85;10.27;;;;;;;11.16;70.72;99671.38;4993067;28;20056;-83
2023/03/19 01:34:31;;;;;;;23.38;11.15;;;;;;;11.07;71.20;99681.91;4912928;28;20404;-82
2023/03/19 01:37:06;;;;;;;23.83;11.30;;;;;;;11.14;70.86;99676.00;4995516;28;20084;-82
2023/03/19 01:39:33;;;;;;;23.77;9.73;;;;;;;11.12;70.96;99675.31;5007030;28;20049;-82
2023/03/19 01:42:05;;;;;;;24.63;11.02;;;;;;;11.04;71.74;99668.03;5002605;28;20133;-82
2023/03/19 01:44:37;;;;;;;24.23;9.93;;;;;;;11.04;72.30;99673.34;4959422;28;20171;-82
2023/03/19 01:47:34;;;;;;;21.73;9.75;;;;;;;10.87;72.65;99666.97;5013555;28;20045;-81
2023/03/19 01:50:20;;;;;;;24.48;10.95;;;;;;;10.98;72.05;99677.44;4956160;28;20037;-82
2023/03/19 01:52:50;;;;;;;19.85;9.45;;;;;;;11.12;71.29;99676.16;4964889;28;20508;-82
2023/03/19 01:55:32;;;;;;;20.88;10.15;;;;;;;11.11;71.37;99681.59;4973295;28;20067;-82
2023/03/19 01:58:10;;;;;;;22.58;9.15;;;;;;;11.08;71.75;99683.56;4980191;28;20045;-82
2023/03/19 02:00:57;;;;;;;22.90;8.95;;;;;;;11.10;71.31;99687.91;4972349;28;20132;-82
2023/03/19 02:03:25;;;;;;;24.77;10.02;;;;;;;11.02;71.83;99692.13;5004007;28;20049;-82
2023/03/19 02:06:13;;;;;;;20.92;9.70;;;;;;;11.00;72.62;99699.38;4957582;28;20163;-82
2023/03/19 02:08:40;;;;;;;21.00;9.40;;;;;;;11.03;72.84;99695.59;5011437;28;20041;-83
2023/03/19 02:11:08;;;;;;;23.52;10.15;;;;;;;11.00;72.82;99702.03;4993863;28;20145;-82
2023/03/19 02:13:35;;;;;;;22.33;9.43;;;;;;;10.99;72.70;99708.34;5007987;28;20496;-82
2023/03/19 02:16:03;;;;;;;21.08;9.30;;;;;;;11.01;72.92;99702.88;4989776;28;20045;-82
2023/03/19 02:18:30;;;;;;;19.58;9.45;;;;;;;11.01;72.69;99711.69;5011222;28;20053;-82
2023/03/19 02:21:04;;;;;;;23.35;9.75;;;;;;;10.99;72.86;99712.81;5007416;28;20128;-82
2023/03/19 02:23:36;;;;;;;21.63;9.70;;;;;;;10.96;72.90;99708.59;5010312;28;20052;-82
2023/03/19 02:26:17;;;;;;;20.38;10.70;;;;;;;10.99;73.03;99703.03;4932594;28;20054;-83
2023/03/19 02:28:48;;;;;;;20.67;8.93;;;;;;;11.08;72.54;99699.50;5002839;28;20045;-82
2023/03/19 02:31:20;;;;;;;19.52;10.10;;;;;;;11.03;72.54;99695.59;5000265;28;20041;-81
2023/03/19 02:34:22;;;;;;;21.67;10.13;;;;;;;10.84;73.00;99699.97;4995074;28;20072;-82
2023/03/19 02:36:56;;;;;;;20.52;9.25;;;;;;;10.96;72.13;99708.59;4912262;28;20045;-82
2023/03/19 02:39:29;;;;;;;20.73;10.18;;;;;;;10.93;72.08;99710.72;4979453;28;20104;-83
2023/03/19 02:41:57;;;;;;;20.10;9.75;;;;;;;10.94;72.45;99721.22;4988142;28;20123;-82
2023/03/19 02:44:25;;;;;;;28.98;9.30;;;;;;;10.94;72.60;99720.34;4992692;28;20136;-82
2023/03/19 02:46:52;;;;;;;21.00;8.52;;;;;;;11.01;72.46;99722.31;5008131;28;20080;-82
2023/03/19 02:49:19;;;;;;;16.08;8.13;;;;;;;10.97;72.57;99723.59;4978413;28;20126;-82
2023/03/19 02:51:46;;;;;;;23.38;9.35;;;;;;;10.92;72.80;99731.16;4985738;28;20049;-83
2023/03/19 02:54:12;;;;;;;14.80;8.10;;;;;;;10.92;73.18;99725.81;4989067;28;20493;-82
2023/03/19 02:56:39;;;;;;;20.38;8.23;;;;;;;10.94;73.35;99715.03;5007487;28;20073;-82
2023/03/19 02:59:06;;;;;;;15.15;8.20;;;;;;;10.94;73.37;99707.94;4980424;28;20514;-83
2023/03/19 03:01:33;;;;;;;16.50;8.82;;;;;;;10.90;73.44;99722.47;5004865;28;20051;-82
2023/03/19 03:04:00;;;;;;;16.55;8.75;;;;;;;10.85;73.40;99727.38;5006981;28;20045;-82
2023/03/19 03:06:26;;;;;;;19.67;8.35;;;;;;;10.79;73.41;99723.47;5015987;28;20057;-83
2023/03/19 03:08:54;;;;;;;21.45;8.88;;;;;;;10.90;73.15;99727.78;4974162;28;20627;-82
2023/03/19 03:11:21;;;;;;;17.73;9.40;;;;;;;10.82;73.74;99732.97;4988520;28;20052;-82
2023/03/19 03:13:48;;;;;;;20.52;9.05;;;;;;;10.75;73.64;99727.34;4975986;28;20055;-83
2023/03/19 03:16:16;;;;;;;18.40;8.90;;;;;;;10.71;73.77;99725.97;5003514;28;20132;-82
2023/03/19 03:18:43;;;;;;;16.20;8.38;;;;;;;10.76;73.47;99731.72;4982729;28;20096;-82
2023/03/19 03:21:10;;;;;;;17.33;8.35;;;;;;;10.70;73.58;99731.41;4988949;28;20064;-83
2023/03/19 03:23:37;;;;;;;25.50;9.50;;;;;;;10.73;73.61;99739.94;5007260;28;20038;-82
2023/03/19 03:26:05;;;;;;;22.05;9.45;;;;;;;10.74;73.69;99741.63;4988248;28;20041;-82
2023/03/19 03:28:32;;;;;;;23.67;9.40;;;;;;;10.73;73.77;99739.09;4991922;28;20049;-82
2023/03/19 03:30:59;;;;;;;20.27;10.30;;;;;;;10.69;74.21;99743.03;4977207;28;20057;-82
2023/03/19 03:33:27;;;;;;;15.43;8.55;;;;;;;10.70;74.25;99745.53;5001467;28;20493;-82
2023/03/19 03:35:53;;;;;;;15.25;8.45;;;;;;;10.69;74.66;99745.69;5008630;28;20077;-82
2023/03/19 03:38:20;;;;;;;17.50;8.60;;;;;;;10.61;75.13;99741.91;4974416;28;20058;-82
2023/03/19 03:40:54;;;;;;;22.08;9.45;;;;;;;10.61;75.48;99739.25;4974366;28;20045;-82
2023/03/19 03:43:24;;;;;;;20.60;9.88;;;;;;;10.63;75.33;99752.38;4980558;28;20046;-82
2023/03/19 03:45:52;;;;;;;20.70;8.93;;;;;;;10.60;75.70;99737.56;4990902;28;20065;-82
2023/03/19 03:48:20;;;;;;;22.95;10.10;;;;;;;10.56;75.82;99753.91;5010154;28;20245;-82
2023/03/19 03:50:48;;;;;;;19.67;8.90;;;;;;;10.58;75.22;99758.13;5002292;28;20465;-82
2023/03/19 03:53:18;;;;;;;23.63;10.65;;;;;;;10.60;75.38;99761.44;5005748;28;20056;-82
2023/03/19 03:55:45;;;;;;;17.60;9.25;;;;;;;10.61;75.37;99762.31;4993408;28;20049;-82
2023/03/19 03:58:12;;;;;;;19.40;10.18;;;;;;;10.58;75.21;99768.72;4993475;28;20060;-82
2023/03/19 04:00:39;;;;;;;21.27;9.48;;;;;;;10.56;75.18;99769.84;5010982;28;20128;-82
2023/03/19 04:03:07;;;;;;;18.80;8.93;;;;;;;10.55;75.39;99757.53;4990066;28;20037;-82
2023/03/19 04:05:35;;;;;;;24.00;9.13;;;;;;;10.52;75.66;99769.25;5008689;28;20439;-83
2023/03/19 04:08:02;;;;;;;19.30;9.07;;;;;;;10.52;75.57;99761.31;4992577;28;20500;-82
2023/03/19 04:10:30;;;;;;;25.42;9.02;;;;;;;10.56;75.35;99762.72;4977921;28;20057;-82
2023/03/19 04:12:57;;;;;;;13.35;8.55;;;;;;;10.53;75.33;99756.81;4995370;28;20065;-82
2023/03/19 04:15:26;;;;;;;18.13;8.35;;;;;;;10.42;75.87;99761.28;4996878;28;20044;-82
2023/03/19 04:17:55;;;;;;;24.17;9.63;;;;;;;10.46;75.73;99761.84;4993509;28;20111;-82
2023/03/19 04:20:22;;;;;;;19.33;9.27;;;;;;;10.45;75.86;99759.34;4973274;28;20041;-82
2023/03/19 04:22:49;;;;;;;21.50;9.02;;;;;;;10.47;75.70;99760.03;4979407;28;20129;-82
2023/03/19 04:25:17;;;;;;;16.73;8.75;;;;;;;10.43;75.76;99762.97;5015621;28;20048;-83
2023/03/19 04:27:45;;;;;;;28.15;9.18;;;;;;;10.48;75.59;99765.22;5007455;28;20045;-82
2023/03/19 04:30:12;;;;;;;22.15;8.85;;;;;;;10.46;75.76;99767.16;5008596;28;20121;-82
2023/03/19 04:32:38;;;;;;;18.30;8.75;;;;;;;10.45;75.54;99765.47;5003215;28;20045;-82
2023/03/19 04:35:06;;;;;;;19.50;9.55;;;;;;;10.40;75.96;99767.69;5006866;28;20056;-82
2023/03/19 04:37:33;;;;;;;20.15;8.73;;;;;;;10.35;76.15;99772.56;5003738;28;20554;-82
2023/03/19 04:40:00;;;;;;;15.63;8.60;;;;;;;10.37;76.01;99767.97;5005849;28;20051;-82
2023/03/19 04:42:35;;;;;;;19.67;9.55;;;;;;;10.34;76.20;99770.91;5008997;28;20451;-82
2023/03/19 04:45:09;;;;;;;21.67;10.15;;;;;;;10.39;75.97;99758.91;5004244;28;20060;-83
2023/03/19 04:47:36;;;;;;;19.33;8.95;;;;;;;10.36;76.26;99771.63;4979155;28;20052;-82
2023/03/19 04:50:05;;;;;;;20.42;9.15;;;;;;;10.35;76.19;99773.41;4995284;28;20045;-82
2023/03/19 04:52:36;;;;;;;19.00;9.18;;;;;;;10.35;76.05;99775.22;4996416;28;20092;-82
2023/03/19 04:55:04;;;;;;;24.10;8.50;;;;;;;10.35;75.83;99780.53;4996056;28;20376;-82
2023/03/19 04:57:42;;;;;;;18.60;9.40;;;;;;;10.37;76.03;99786.56;4960793;28;20063;-82
2023/03/19 05:00:09;;;;;;;23.58;10.77;;;;;;;10.39;76.38;99780.13;5008705;28;20077;-82
2023/03/19 05:02:39;;;;;;;17.77;9.55;;;;;;;10.32;77.31;99783.47;4963974;28;20192;-82
2023/03/19 05:05:07;;;;;;;18.40;8.30;;;;;;;10.27;77.42;99786.50;5009497;28;20750;-82
2023/03/19 05:07:35;;;;;;;21.42;9.85;;;;;;;10.26;77.73;99795.44;4988465;28;20066;-82
2023/03/19 05:10:03;;;;;;;16.10;8.77;;;;;;;10.27;77.17;99794.44;4976929;28;20049;-82
2023/03/19 05:12:30;;;;;;;21.30;9.30;;;;;;;10.35;76.06;99794.63;5006473;28;20049;-82
2023/03/19 05:14:58;;;;;;;23.05;9.15;;;;;;;10.42;75.22;99798.44;5005669;28;20050;-82
2023/03/19 05:17:48;;;;;;;16.35;8.70;;;;;;;10.40;74.93;99799.56;4974196;28;20076;-82
2023/03/19 05:20:20;;;;;;;19.52;8.77;;;;;;;10.41;74.85;99802.09;5013041;28;20048;-82
2023/03/19 05:22:53;;;;;;;17.80;7.57;;;;;;;10.43;74.98;99808.09;4958351;28;20428;-83
2023/03/19 05:25:27;;;;;;;16.08;8.27;;;;;;;10.40;74.74;99803.03;4982114;28;20098;-82
2023/03/19 05:27:55;;;;;;;25.50;10.38;;;;;;;10.49;74.30;99806.72;5014027;28;20042;-82
2023/03/19 05:30:23;;;;;;;17.95;8.40;;;;;;;10.46;73.88;99804.34;5003586;28;20568;-82
2023/03/19 05:33:04;;;;;;;20.80;8.40;;;;;;;10.39;74.49;99804.03;4980137;28;20076;-82
2023/03/19 05:35:35;;;;;;;16.17;8.65;;;;;;;10.38;74.53;99797.06;4974412;28;21511;-82
2023/03/19 05:38:08;;;;;;;22.90;8.65;;;;;;;10.29;75.23;99815.59;4973524;28;20058;-83
2023/03/19 05:40:35;;;;;;;17.70;8.13;;;;;;;10.28;75.84;99816.53;4975643;28;20041;-82
2023/03/19 05:43:15;;;;;;;21.90;8.30;;;;;;;10.27;75.78;99828.13;4973795;28;20045;-82
2023/03/19 05:45:42;;;;;;;22.90;8.50;;;;;;;10.26;76.03;99819.31;4981601;28;20041;-82
2023/03/19 05:48:18;;;;;;;18.92;8.52;;;;;;;10.25;75.88;99822.94;4979166;28;20441;-83
2023/03/19 05:50:47;;;;;;;18.13;8.02;;;;;;;10.26;75.75;99823.78;5032175;28;21510;-82
2023/03/19 05:53:21;;;;;;;15.57;7.63;;;;;;;10.22;75.88;99820.56;4988265;28;20049;-82
2023/03/19 05:56:07;;;;;;;14.27;8.32;;;;;;;10.17;75.91;99815.63;4977501;28;20049;-82
2023/03/19 05:58:45;;;;;;;30.08;9.48;;;;;;;10.17;76.21;99822.78;5006107;28;20041;-82
2023/03/19 06:01:15;;;;;;;19.92;8.07;;;;;;;10.19;76.05;99824.31;5001516;28;20116;-82
2023/03/19 06:03:43;;;;;;;17.77;7.93;;;;;;;10.19;76.45;99826.13;5001253;28;20045;-82
2023/03/19 06:06:11;;;;;;;25.92;8.65;;;;;;;10.22;76.11;99824.03;5018096;28;20053;-82
2023/03/19 06:08:42;;;;;;;21.30;9.15;;;;;;;10.28;75.76;99827.16;5001519;28;20532;-82
2023/03/19 06:11:31;;;;;;;17.83;7.82;;;;;;;10.21;76.37;99833.00;4978661;28;20108;-81
2023/03/19 06:14:17;;;;;;;30.90;9.38;;;;;;;10.21;76.78;99843.59;5002014;28;20046;-82
2023/03/19 06:16:58;;;;;;;14.95;8.18;;;;;;;10.19;77.17;99845.53;4991043;28;20049;-82
2023/03/19 06:19:25;;;;;;;23.52;8.50;;;;;;;10.21;76.74;99846.25;4992944;28;20048;-82
2023/03/19 06:21:51;;;;;;;24.92;9.65;;;;;;;10.22;76.63;99847.91;5020455;28;20050;-82
2023/03/19 06:24:19;;;;;;;18.23;8.30;;;;;;;10.26;76.66;99845.84;5016377;28;20115;-82
2023/03/19 06:26:46;;;;;;;19.75;8.35;;;;;;;10.22;77.22;99853.22;5009955;28;20065;-83
2023/03/19 06:29:14;;;;;;;16.85;7.93;;;;;;;10.15;77.70;99853.91;5007331;28;20140;-83
2023/03/19 06:31:43;;;;;;;18.58;8.82;;;;;;;10.13;78.47;99853.22;5021754;28;20069;-83
2023/03/19 06:34:18;;;;;;;16.27;8.48;;;;;;;10.12;78.15;99852.34;4997524;28;20489;-82
2023/03/19 06:36:45;;;;;;;21.38;9.02;;;;;;;10.19;78.23;99860.63;4992780;28;20053;-82
2023/03/19 06:39:15;;;;;;;19.67;7.55;;;;;;;10.20;77.96;99851.69;5021219;28;20042;-83
2023/03/19 06:41:42;;;;;;;22.90;8.57;;;;;;;10.15;78.24;99857.41;5027262;28;20061;-82
2023/03/19 06:44:15;;;;;;;20.98;9.68;;;;;;;10.28;77.25;99853.69;4987438;28;20080;-83
2023/03/19 06:46:42;;;;;;;17.27;8.32;;;;;;;10.29;77.09;99853.59;5002446;28;20128;-82
2023/03/19 06:49:09;;;;;;;23.90;8.18;;;;;;;10.26;77.39;99847.69;4997461;28;20058;-82
2023/03/19 06:51:36;;;;;;;14.63;7.65;;;;;;;10.28;77.59;99853.69;4994295;28;20588;-82
2023/03/19 06:54:02;;;;;;;19.58;8.70;;;;;;;10.29;77.57;99858.06;5021441;28;20041;-81
2023/03/19 06:56:29;;;;;;;21.73;8.80;;;;;;;10.32;77.23;99863.09;5032347;28;20045;-80
2023/03/19 06:58:56;;;;;;;17.02;8.90;;;;;;;10.37;76.88;99855.56;4999925;28;20057;-83
2023/03/19 07:01:23;;;;;;;20.15;8.45;;;;;;;10.34;77.17;99856.69;5006052;28;20045;-81
2023/03/19 07:03:49;;;;;;;22.00;9.85;;;;;;;10.39;76.60;99854.47;5022251;28;20116;-82
2023/03/19 07:06:17;;;;;;;25.00;8.88;;;;;;;10.38;76.50;99859.88;5010687;28;20045;-81
2023/03/19 07:08:46;;;;;;;23.35;9.45;;;;;;;10.35;76.92;99860.16;5000297;28;20041;-81
2023/03/19 07:11:13;;;;;;;20.23;9.57;;;;;;;10.38;77.14;99859.88;5000975;28;20112;-81
2023/03/19 07:13:40;;;;;;;22.30;9.65;;;;;;;10.42;77.09;99858.66;5028090;28;20103;-81
2023/03/19 07:16:06;;;;;;;18.83;10.20;;;;;;;10.41;77.03;99867.59;5007543;28;20045;-81
2023/03/19 07:18:33;;;;;;;17.60;9.40;;;;;;;10.42;77.32;99870.13;4995818;28;20045;-81
2023/03/19 07:21:00;;;;;;;19.88;9.82;;;;;;;10.42;77.39;99875.41;5021209;28;20053;-82
2023/03/19 07:23:27;;;;;;;18.70;9.60;;;;;;;10.40;77.51;99874.72;5017020;28;20501;-82
2023/03/19 07:25:54;;;;;;;17.95;9.05;;;;;;;10.45;76.95;99878.78;5019614;28;20054;-81
2023/03/19 07:28:21;;;;;;;15.15;9.13;;;;;;;10.50;76.71;99872.09;4988658;28;20036;-82
2023/03/19 07:30:51;;;;;;;19.77;9.68;;;;;;;10.54;77.09;99876.19;4982063;28;20052;-81
2023/03/19 07:33:19;;;;;;;20.17;10.20;;;;;;;10.59;76.74;99881.09;5018448;28;20037;-82
2023/03/19 07:35:45;;;;;;;20.50;8.85;;;;;;;10.53;77.01;99886.91;5001734;28;20137;-82
2023/03/19 07:38:13;;;;;;;20.83;9.05;;;;;;;10.57;76.49;99885.69;5013483;28;20117;-82
2023/03/19 07:40:40;;;;;;;19.83;9.38;;;;;;;10.54;76.42;99878.00;5010404;28;20042;-82
2023/03/19 07:43:17;;;;;;;18.17;9.27;;;;;;;10.59;76.32;99883.75;4997190;28;20451;-82
2023/03/19 07:45:43;;;;;;;19.48;10.05;;;;;;;10.60;76.98;99877.44;4989769;28;20096;-81
2023/03/19 07:48:11;;;;;;;24.20;9.65;;;;;;;10.64;76.83;99874.38;4985909;28;20049;-82
2023/03/19 07:50:38;;;;;;;24.40;10.63;;;;;;;10.70;77.20;99886.28;5012147;28;20053;-82
2023/03/19 07:53:05;;;;;;;26.30;11.23;;;;;;;10.77;77.07;99878.63;5007337;28;20042;-81
2023/03/19 07:55:32;;;;;;;24.75;11.32;;;;;;;10.85;77.14;99884.09;4979882;28;20048;-81
2023/03/19 07:57:58;;;;;;;19.23;10.20;;;;;;;10.85;77.70;99886.75;4968086;28;20049;-81
2023/03/19 08:00:26;;;;;;;19.15;10.10;;;;;;;10.85;77.54;99876.13;4989657;28;20050;-82
2023/03/19 08:02:52;;;;;;;17.83;10.25;;;;;;;10.93;77.28;99880.75;5003991;28;20048;-81
2023/03/19 08:05:19;;;;;;;19.88;11.38;;;;;;;10.99;77.49;99881.06;5006624;28;20456;-82
2023/03/19 08:07:48;;;;;;;19.05;11.20;;;;;;;11.01;77.29;99884.38;4994677;28;20099;-82
2023/03/19 08:10:15;;;;;;;22.48;10.80;;;;;;;11.12;77.42;99877.28;4974591;28;20401;-81
2023/03/19 08:12:41;;;;;;;23.40;11.15;;;;;;;11.20;77.36;99880.09;4999479;28;20052;-81
2023/03/19 08:15:09;;;;;;;26.50;12.13;;;;;;;11.28;77.08;99877.59;4978563;28;20052;-82
2023/03/19 08:17:37;;;;;;;18.73;10.35;;;;;;;11.29;77.62;99877.44;4988573;28;20091;-84
2023/03/19 08:20:09;;;;;;;21.08;10.65;;;;;;;11.32;77.96;99881.63;4994203;28;20370;-81
2023/03/19 08:22:36;;;;;;;31.03;12.40;;;;;;;11.36;77.77;99883.03;4954583;28;20072;-81
2023/03/19 08:25:05;;;;;;;28.17;12.98;;;;;;;11.46;77.83;99875.91;4995030;28;20045;-82
2023/03/19 08:27:34;;;;;;;26.23;12.50;;;;;;;11.56;77.74;99873.25;5013838;28;20050;-82
2023/03/19 08:30:03;;;;;;;25.45;12.73;;;;;;;11.67;77.43;99880.22;4983157;28;20046;-82
2023/03/19 08:32:30;;;;;;;31.48;14.80;;;;;;;11.70;77.55;99883.47;4993835;28;20052;-82
2023/03/19 08:34:57;;;;;;;20.67;12.60;;;;;;;11.75;77.26;99875.03;4975225;28;20037;-81
2023/03/19 08:37:23;;;;;;;23.70;11.95;;;;;;;11.81;77.30;99881.63;4992643;28;20049;-81
2023/03/19 08:39:51;;;;;;;23.67;12.85;;;;;;;11.86;77.35;99879.38;4986780;28;20049;-82
2023/03/19 08:42:21;;;;;;;26.63;12.70;;;;;;;11.87;77.58;99879.25;4962005;28;20061;-81
2023/03/19 08:44:48;;;;;;;23.92;11.07;;;;;;;11.93;77.01;99883.16;4981202;28;20053;-81
2023/03/19 08:47:15;;;;;;;23.40;12.10;;;;;;;11.97;77.25;99891.69;4994595;28;20042;-81
2023/03/19 08:49:42;;;;;;;23.90;11.35;;;;;;;12.01;77.00;99893.94;5006379;28;20041;-82
2023/03/19 08:52:09;;;;;;;20.50;12.07;;;;;;;12.04;77.17;99892.81;5008069;28;20045;-82
2023/03/19 08:54:35;;;;;;;27.25;11.95;;;;;;;12.05;77.73;99889.16;5029857;28;20050;-81
2023/03/19 08:57:02;;;;;;;30.42;13.02;;;;;;;12.06;77.69;99890.81;5000522;28;20065;-82
2023/03/19 08:59:29;;;;;;;24.02;12.43;;;;;;;12.03;77.77;99897.28;4992117;28;20064;-82
2023/03/19 09:01:59;;;;;;;26.52;14.15;;;;;;;12.06;77.94;99899.66;4991569;28;20046;-82
2023/03/19 09:04:26;;;;;;;28.02;13.00;;;;;;;12.10;77.80;99895.72;5007410;28;20562;-81
2023/03/19 09:06:53;;;;;;;32.85;13.23;;;;;;;12.15;77.85;99898.78;5028313;28;20056;-82
2023/03/19 09:09:21;;;;;;;27.58;12.77;;;;;;;12.19;77.78;99891.38;4976842;28;20442;-82
2023/03/19 09:11:48;;;;;;;26.48;13.30;;;;;;;12.20;77.60;99892.19;4991581;28;20042;-82
2023/03/19 09:14:15;;;;;;;28.58;12.63;;;;;;;12.23;77.86;99895.41;4989858;28;20046;-81
2023/03/19 09:16:42;;;;;;;28.23;13.05;;;;;;;12.24;78.04;99894.44;4976041;28;20441;-82
2023/03/19 09:19:09;;;;;;;23.90;12.77;;;;;;;12.31;77.79;99892.00;4989477;28;20480;-81
2023/03/19 09:21:36;;;;;;;27.98;12.55;;;;;;;12.32;77.60;99897.22;4990269;28;20052;-81
2023/03/19 09:24:03;;;;;;;33.80;14.00;;;;;;;12.30;77.44;99893.00;5009150;28;20041;-82
2023/03/19 09:26:30;;;;;;;27.50;14.20;;;;;;;12.35;76.91;99898.75;4998843;28;20042;-82
2023/03/19 09:28:58;;;;;;;26.33;13.80;;;;;;;12.41;77.12;99895.47;5022456;28;20133;-82
2023/03/19 09:31:25;;;;;;;28.33;14.07;;;;;;;12.43;77.20;99896.19;4979620;28;20050;-82
2023/03/19 09:33:55;;;;;;;31.80;13.88;;;;;;;12.46;76.92;99900.38;4996656;28;20049;-82
2023/03/19 09:36:21;;;;;;;30.05;13.82;;;;;;;12.49;76.97;99892.94;4983464;28;20038;-81
2023/03/19 09:38:48;;;;;;;25.42;12.10;;;;;;;12.54;77.06;99892.47;4990216;28;20036;-82
2023/03/19 09:41:30;;;;;;;32.92;15.48;;;;;;;12.48;76.91;99885.09;5001811;28;20448;-82
2023/03/19 09:44:20;;;;;;;34.47;13.32;;;;;;;12.59;76.72;99896.41;4977153;28;21232;-83
2023/03/19 09:47:08;;;;;;;26.90;12.80;;;;;;;12.51;77.54;99885.63;4979691;28;20116;-82
2023/03/19 09:49:38;;;;;;;33.20;13.43;;;;;;;12.58;76.69;99884.06;4955293;28;20100;-82
2023/03/19 09:52:05;;;;;;;26.95;11.30;;;;;;;12.63;76.55;99880.97;4994006;28;20049;-82
2023/03/19 09:54:48;;;;;;;31.65;13.88;;;;;;;12.65;76.32;99873.66;4985788;28;20048;-81
2023/03/19 09:57:16;;;;;;;31.90;12.25;;;;;;;12.67;76.59;99868.16;4975111;28;20516;-82
2023/03/19 09:59:43;;;;;;;29.17;12.30;;;;;;;12.71;76.19;99870.38;5008606;28;20095;-82
2023/03/19 10:02:39;;;;;;;25.17;11.88;;;;;;;12.69;76.19;99874.19;4976730;28;20491;-83
2023/03/19 10:05:17;;;;;;;30.77;14.05;;;;;;;12.75;76.40;99865.63;4975574;28;20437;-82
2023/03/19 10:07:53;;;;;;;32.40;14.02;;;;;;;12.77;76.48;99866.28;4977247;28;20547;-82
2023/03/19 10:10:49;;;;;;;30.83;13.52;;;;;;;12.78;76.23;99868.81;4990110;28;20056;-82
2023/03/19 10:13:45;;;;;;;23.80;11.70;;;;;;;12.79;76.47;99865.16;4947636;28;20045;-82
2023/03/19 10:16:20;;;;;;;27.80;13.00;;;;;;;12.88;76.17;99863.44;4945163;28;20045;-82
2023/03/19 10:18:49;;;;;;;25.00;11.95;;;;;;;12.93;76.15;99865.66;4990371;28;20068;-82
2023/03/19 10:21:25;;;;;;;27.55;13.02;;;;;;;12.95;75.57;99867.19;4981661;28;20045;-82
2023/03/19 10:23:57;;;;;;;33.60;13.30;;;;;;;12.96;75.68;99860.84;4982379;28;20076;-82
2023/03/19 10:26:30;;;;;;;32.30;11.48;;;;;;;12.99;75.74;99860.53;4954528;28;20567;-82
2023/03/19 10:29:04;;;;;;;30.05;12.20;;;;;;;12.97;75.64;99859.84;4979851;28;20052;-82
2023/03/19 10:31:59;;;;;;;22.58;11.88;;;;;;;12.97;75.25;99859.00;5011087;28;20514;-81
2023/03/19 10:34:36;;;;;;;23.52;11.55;;;;;;;13.02;75.11;99854.06;4964389;28;20034;-82
2023/03/19 10:37:13;;;;;;;25.00;10.85;;;;;;;13.04;75.10;99858.25;4972433;28;20397;-82
2023/03/19 10:39:43;;;;;;;22.67;10.57;;;;;;;13.10;75.14;99847.97;4956396;28;20045;-82
2023/03/19 10:42:38;;;;;;;26.60;10.55;;;;;;;13.13;74.68;99845.88;4982365;28;20422;-82
2023/03/19 10:45:26;;;;;;;18.35;9.15;;;;;;;13.15;74.81;99843.91;4960992;28;20061;-82
2023/03/19 10:47:55;;;;;;;20.77;9.63;;;;;;;13.24;74.32;99842.13;4974804;28;20049;-82
2023/03/19 10:50:27;;;;;;;25.02;10.48;;;;;;;13.31;74.15;99839.72;4978249;28;20046;-82
2023/03/19 10:53:19;;;;;;;21.23;9.25;;;;;;;13.29;73.89;99839.03;4995081;28;20108;-82
2023/03/19 10:55:54;;;;;;;21.75;9.00;;;;;;;13.41;73.70;99840.50;4939958;28;20128;-84
2023/03/19 10:58:26;;;;;;;23.77;9.25;;;;;;;13.48;73.86;99835.34;5006518;28;20056;-81
2023/03/19 11:01:01;;;;;;;17.52;7.45;;;;;;;13.51;73.51;99830.56;5006290;28;20132;-82
2023/03/19 11:03:39;;;;;;;17.00;6.97;;;;;;;13.59;72.99;99832.47;4972598;28;20061;-82
2023/03/19 11:06:06;;;;;;;22.27;8.57;;;;;;;13.66;72.10;99820.16;4986528;28;20045;-82
2023/03/19 11:08:35;;;;;;;16.95;6.68;;;;;;;13.66;70.79;99823.69;5007193;28;20491;-82
2023/03/19 11:11:02;;;;;;;16.48;5.75;;;;;;;13.71;70.18;99812.50;4993426;28;20204;-82
2023/03/19 11:13:33;;;;;;;14.88;5.85;;;;;;;13.74;68.99;99814.88;5007630;28;20562;-82
2023/03/19 11:16:00;;;;;;;21.95;5.60;;;;;;;13.81;69.73;99812.41;4988565;28;20387;-82
2023/03/19 11:18:28;;;;;;;19.90;7.05;;;;;;;13.86;69.36;99810.09;4988850;28;20493;-82
2023/03/19 11:21:01;;;;;;;14.80;5.68;;;;;;;13.90;68.92;99811.47;4983274;28;20140;-82
2023/03/19 11:23:30;;;;;;;17.00;5.65;;;;;;;13.96;67.86;99810.84;4976728;28;20045;-82
2023/03/19 11:26:03;;;;;;;15.40;5.03;;;;;;;14.00;66.40;99820.22;4989607;28;20096;-82
2023/03/19 11:28:33;;;;;;;14.80;6.65;;;;;;;14.10;65.68;99826.28;4955802;28;20052;-84
2023/03/19 11:31:40;;;;;;;19.58;6.95;;;;;;;14.10;62.34;99815.59;4994593;28;20046;-82
2023/03/19 11:34:22;;;;;;;13.40;5.85;;;;;;;14.14;62.33;99812.59;4956926;28;20381;-82
2023/03/19 11:37:14;;;;;;;17.63;5.93;;;;;;;14.06;62.62;99808.06;4950217;28;20048;-82